Silver Peak Trail, Santa Catalina Island Weather observations

Data are for 10 minute period ending at time listed.
 Day   Time   Solar   Ave.   Ave.  Ave.  Vector    Max.   Stn.    Total
  of    of     Rad.   Air    Rel.  Wind   Wind     Wind   Baro.  Precip.
Year   Day            Temp.  Hum.  Speed  Dir.     Gust   Pres.         
2014   (PST)   W/m2    F      %     mph   deg.      mph    mb.     in.  
------------------------------------------------------------------------
 202   12:20  1009.0    72   69.3     6    245.4    12.5    999.0   0.00  
 202   12:30  1006.0    73   67.6     5    212.4    10.8    999.0   0.00  
 202   12:40  1000.0    76   63.8     5    203.4     9.6    999.0   0.00  
 202   12:50  994.0    75   64.3     5    200.4    11.3    999.0   0.00  
 202   13:00  984.0    75   63.9     5    210.6    10.2    999.0   0.00  
 202   13:10  974.0    76   63.0     5    202.1     9.0    999.0   0.00  
 202   13:20  961.0    76   62.2     4    201.9     8.4    999.0   0.00  
 202   13:30  947.0    75   64.0     4    186.6    10.2    999.0   0.00  
 202   13:40  933.0    74   64.9     6    219.1    11.9    999.0   0.00  
 202   13:50  917.0    74   65.8     7    231.0    11.9    999.0   0.00  
 202   14:00  896.0    73   67.9     8    226.8    16.7    999.0   0.00  
 202   14:10  883.0    71   71.0    10    215.6    20.3    999.0   0.00  
 202   14:20  857.0    71   71.8    10    213.2    18.5    999.0   0.00  
 202   14:30  834.0    70   72.4    12    215.2    20.3    999.0   0.00  
 202   14:40  811.0    70   73.0    10    217.2    16.7    999.0   0.00  
 202   14:50  787.0    72   70.3     8    219.4    16.7    999.0   0.00  
 202   15:00  762.0    71   71.4     8    229.3    15.5    999.0   0.00  
 202   15:10  734.0    70   72.1     9    223.3    17.3    999.0   0.00  
 202   15:20  707.0    69   73.0    10    229.9    16.1    999.0   0.00  
 202   15:30  678.0    71   68.4     8    228.3    14.9    999.0   0.00  
 202   15:40  648.0    70   70.0    10    228.1    14.9    999.0   0.00  
 202   15:50  618.0    70   69.8     8    228.7    15.5    999.0   0.00  
 202   16:00  588.0    71   66.6     5    245.0     8.4    999.0   0.00  
 202   16:10  556.0    73   63.8     6    220.5    10.2    999.0   0.00  
 202   16:20  523.0    73   63.9     6    220.5     9.6    999.0   0.00  
 202   16:30  491.0    73   63.8     5    217.5     8.4    999.0   0.00  
 202   16:40  458.0    70   69.1     8    222.8    14.3    999.0   0.00  
 202   16:50  424.0    69   69.8     8    229.4    12.5    999.0   0.00  
 202   17:00  391.0    67   75.4    10    237.2    16.1    999.0   0.00  
 202   17:10  358.0    66   78.3     9    240.9    13.7    999.0   0.00  
 202   17:20  323.0    66   78.6     9    249.1    16.7    999.0   0.00  
 202   17:30  271.0    66   77.8     8    260.1    12.5    999.0   0.00  
 202   17:40  230.0    66   79.5     6    249.9    13.1    999.0   0.00  
 202   17:50  212.0    66   79.6     5    239.9    10.2    999.0   0.00  
 202   18:00  190.0    67   79.0     4    210.4     9.0    999.0   0.00  
 202   18:10  158.0    67   76.5     2    103.4     5.4    999.0   0.00  
 202   18:20  123.0    67   75.3     2    146.0     4.2    999.0   0.00  
 202   18:30   99.0    65   81.5     3    112.4     4.2    999.0   0.00  
 202   18:40   72.0    64   83.2     3    340.5     6.0    999.0   0.00  
 202   18:50   23.0    64   82.2     2    206.6     4.8    999.0   0.00  
 202   19:00    8.0    63   84.4     4     13.9     6.0    999.0   0.00  
 202   19:10    3.0    64   77.0     4    284.7     6.6    999.0   0.00  
 202   19:20    1.0    64   76.3     3    223.1     4.8    999.0   0.00  
 202   19:30    0.0    64   75.0     2    260.3     4.2    999.0   0.00  
 202   19:40    0.0    63   78.8     3    207.8     4.8    999.0   0.00  
 202   19:50    0.0    63   81.9     4    235.4     7.2    999.0   0.00  
 202   20:00    0.0    62   87.4     7    226.0     9.0    999.0   0.00  
 202   20:10    0.0    63   79.1     3    270.3     6.6    999.0   0.00  
 202   20:20    0.0    65   72.6     2    126.4     4.2    999.0   0.00  
 202   20:30    0.0    64   77.9     1    121.9     3.0    999.0   0.00  
 202   20:40    0.0    64   76.9     4    334.0     6.0    999.0   0.00  
 202   20:50    0.0    64   78.2     4    332.1     6.6    999.0   0.00  
 202   21:00    0.0    64   77.1     6    328.0     8.4    999.0   0.00  
 202   21:10    0.0    65   73.7     6    341.1     9.6    999.0   0.00  
 202   21:20    0.0    64   75.9     6    236.1     8.4    999.0   0.00  
 202   21:30    0.0    64   78.0     4    233.6     6.0    999.0   0.00  
 202   21:40    0.0    64   78.6     5    303.5     7.2    999.0   0.00  
 202   21:50    0.0    64   77.4     4    336.9     6.6    999.0   0.00  
 202   22:00    0.0    64   77.8     3    354.6     4.8    999.0   0.00  
 202   22:10    0.0    64   78.4     3    315.9     5.4    999.0   0.00  
 202   22:20    0.0    63   78.7     2    310.2     5.4    999.0   0.00  
 202   22:30    0.0    62   82.5     4    343.0     6.0    999.0   0.00  
 202   22:40    0.0    61   87.5     6    340.1     7.8    999.0   0.00  
 202   22:50    0.0    61   90.0     4    321.3     7.2    999.0   0.00  
 202   23:00    0.0    62   86.5     2    260.3     4.8    999.0   0.00  
 202   23:10    0.0    62   85.4     3    282.3     5.4    999.0   0.00  
 202   23:20    0.0    62   84.8     4    246.5     5.4    999.0   0.00  
 202   23:30    0.0    63   80.6     4    280.9     6.0    999.0   0.00  
 202   23:40    0.0    64   75.5     3    305.0     6.6    999.0   0.00  
 202   23:50    0.0    64   75.6     2    243.8     4.8    999.0   0.00  
 203    0:00    0.0    63   79.1     3    229.6     7.2    999.0   0.00  
 203    0:10    0.0    62   84.5     4    242.7     7.2    999.0   0.00  
 203    0:20    0.0    63   80.7     1     10.3     3.0    999.0   0.00  
 203    0:30    0.0    62   84.7     3    229.3     6.0    999.0   0.00  
 203    0:40    0.0    62   85.9     3    352.1     4.8    999.0   0.00  
 203    0:50    0.0    61   86.4     2    316.1     3.0    999.0   0.00  
 203    1:00    0.0    61   88.7     5    246.4     8.4    999.0   0.00  
 203    1:10    0.0    60   92.9     6    244.7     9.0    999.0   0.00  
 203    1:20    0.0    60   94.1     6    258.1     7.8    999.0   0.00  
 203    1:30    0.0    60   94.3     5    262.1     7.8    999.0   0.00  
 203    1:40    0.0    60   94.1     7    254.8    10.8    999.0   0.00  
 203    1:50    0.0    59   94.9     7    263.4    11.9    999.0   0.00  
 203    2:00    0.0    59   95.2     4    256.5     9.0    999.0   0.00  
 203    2:10    0.0    59   94.8     5    253.9     7.8    999.0   0.00  
 203    2:20    0.0    60   93.2     5    248.9     9.0    999.0   0.00  
 203    2:30    0.0    60   89.2     4    252.4    10.2    999.0   0.00  
 203    2:40    0.0    60   93.0     8    251.2    11.3    999.0   0.00  
 203    2:50    0.0    59   94.5     8    256.1    11.3    999.0   0.00  
 203    3:00    0.0    59   95.2     6    269.7    10.8    999.0   0.00  
 203    3:10    0.0    60   93.8     6    320.6     9.0    999.0   0.00  
 203    3:20    0.0    63   79.3     4    298.4     6.6    999.0   0.00  
 203    3:30    0.0    62   81.0     4    268.7     6.0    999.0   0.00  
 203    3:40    0.0    63   80.9     6    315.8     7.8    999.0   0.00  
 203    3:50    0.0    62   82.2     7    323.7    10.2    999.0   0.00  
 203    4:00    0.0    63   78.8     8    315.8    10.8    999.0   0.00  
 203    4:10    0.0    65   71.8     6    299.3     9.0    999.0   0.00  
 203    4:20    0.0    64   75.0     6    308.9     8.4    999.0   0.00  
 203    4:30    0.0    66   64.3     5    273.6     8.4    999.0   0.00  
 203    4:40    0.0    66   65.3     6    298.0     8.4    999.0   0.00  
 203    4:50    1.0    66   65.6     8    320.3    11.9    999.0   0.00  
 203    5:00    2.0    64   76.1     8    313.2    13.7    999.0   0.00  
 203    5:10   11.0    64   77.9     7    304.8     9.6    999.0   0.00  
 203    5:20   34.0    64   78.1     7    293.0    10.8    999.0   0.00  
 203    5:30   60.0    65   76.2     8    305.8    11.3    999.0   0.00  
 203    5:40   88.0    65   75.9     9    319.9    10.8    999.0   0.00  
 203    5:50  117.0    65   78.1     9    315.3    10.8    999.0   0.00  
 203    6:00  147.0    65   78.8     5    331.8    10.2    999.0   0.00  
 203    6:10  177.0    66   76.9     6    329.0     9.6    999.0   0.00  
 203    6:20  208.0    66   76.0     6    346.4    10.2    999.0   0.00  
 203    6:30  242.0    66   77.2     7    343.4    10.2    999.0   0.00  
 203    6:40  276.0    66   76.0     9    339.5    11.9    999.0   0.00  
 203    6:50  311.0    66   76.9     9    345.1    11.9    999.0   0.00  
 203    7:00  346.0    66   77.0     9    354.7    11.3    999.0   0.00  
 203    7:10  381.0    66   80.9     7      1.9    10.8    999.0   0.00  
 203    7:20  416.0    66   82.8     8     20.0    10.2    999.0   0.00  
 203    7:30  453.0    66   82.4     8     27.0    10.8    999.0   0.00  
 203    7:40  487.0    67   81.2     5     26.7     7.2    999.0   0.00  
 203    7:50  523.0    67   81.9     6     27.8     9.6    999.0   0.00  
 203    8:00  557.0    69   79.4     6     39.6     8.4    999.0   0.00  
 203    8:10  590.0    70   78.6     4     96.2     7.2    999.0   0.00  
 203    8:20  620.0    71   76.4     4     52.6     9.6    999.0   0.00  
 203    8:30  650.0    70   77.8     5     38.6     8.4    999.0   0.00  
 203    8:40  680.0    72   74.8     4     99.1     6.0    999.0   0.00  
 203    8:50  709.0    72   75.3     4     65.2     7.8    999.0   0.00  
 203    9:00  737.0    71   77.2     6     39.2     9.0    999.0   0.00  
 203    9:10  764.0    71   77.1     7     34.3    10.2    999.0   0.00  
 203    9:20  788.0    69   78.9     6     22.7     9.0    999.0   0.00  
 203    9:30  813.0    70   76.0     5     38.1     8.4    999.0   0.00  
 203    9:40  837.0    71   75.5     5     52.8     7.8    999.0   0.00  
 203    9:50  860.0    69   78.4     6     21.1     9.6    999.0   0.00  
 203   10:00  880.0    69   80.0     6     26.1    10.8    999.0   0.00  
 203   10:10  901.0    71   76.4     5     32.6    13.1    999.0   0.00  
 203   10:20  919.0    70   76.4     5     40.8     7.8    999.0   0.00  
 203   10:30  937.0    71   75.1     5     47.1     7.2    999.0   0.00  
 203   10:40  952.0    72   73.6     5     33.5     9.0    999.0   0.00  
 203   10:50  967.0    72   73.6     6     28.3     8.4    999.0   0.00  
 203   11:00  980.0    72   72.8     5     37.8    10.2    999.0   0.00  
 203   11:10  991.0    74   69.4     5     41.5     9.0    999.0   0.00  
 203   11:20  1000.0    73   70.2     4     23.3     9.6    999.0   0.00  
 203   11:30  1008.0    76   67.0     4     17.9     9.6    999.0   0.00  
 203   11:40  1013.0    77   65.2     3      0.4     6.6    999.0   0.00  
 203   11:50  1017.0    78   64.1     4     72.8     6.0    999.0   0.00  
 203   12:00  1020.0    76   65.6     4     40.6     7.8    999.0   0.00  
 203   12:10  1019.0    78   63.4     4     22.7     7.2    999.0   0.00  

Return to Silver Peak Trail graphs page.


Western Regional Climate Center,wrcc@dri.edu